sensor_id;sensor_type;location;lat;lon;timestamp;pressure;altitude;pressure_sealevel;temperature;humidity
18784;BME280;9520;50.954;6.968;2022-12-16T00:00:04;100412.41;;;3.22;45.00
18784;BME280;9520;50.954;6.968;2022-12-16T00:00:28;100419.38;;;3.23;45.04
18784;BME280;9520;50.954;6.968;2022-12-16T00:00:49;100419.38;;;3.23;44.88
18784;BME280;9520;50.954;6.968;2022-12-16T00:01:13;100421.97;;;3.23;45.17
18784;BME280;9520;50.954;6.968;2022-12-16T00:01:36;100415.91;;;3.23;44.51
18784;BME280;9520;50.954;6.968;2022-12-16T00:01:57;100415.91;;;3.24;44.71
18784;BME280;9520;50.954;6.968;2022-12-16T00:02:19;100419.41;;;3.25;44.97
18784;BME280;9520;50.954;6.968;2022-12-16T00:02:41;100424.50;;;3.14;44.38
18784;BME280;9520;50.954;6.968;2022-12-16T00:03:04;100416.69;;;3.17;45.10
18784;BME280;9520;50.954;6.968;2022-12-16T00:03:26;100413.25;;;3.21;44.58
18784;BME280;9520;50.954;6.968;2022-12-16T00:03:49;100409.75;;;3.18;44.53
18784;BME280;9520;50.954;6.968;2022-12-16T00:04:12;100412.34;;;3.15;44.57
18784;BME280;9520;50.954;6.968;2022-12-16T00:04:36;100424.56;;;3.20;44.35
18784;BME280;9520;50.954;6.968;2022-12-16T00:04:58;100422.81;;;3.21;44.23
18784;BME280;9520;50.954;6.968;2022-12-16T00:05:20;100418.47;;;3.21;44.64
18784;BME280;9520;50.954;6.968;2022-12-16T00:05:41;100421.13;;;3.24;44.49
18784;BME280;9520;50.954;6.968;2022-12-16T00:06:06;100421.13;;;3.26;44.60
18784;BME280;9520;50.954;6.968;2022-12-16T00:06:30;100422.00;;;3.26;44.65
18784;BME280;9520;50.954;6.968;2022-12-16T00:06:52;100429.84;;;3.28;44.61
18784;BME280;9520;50.954;6.968;2022-12-16T00:07:15;100421.13;;;3.26;44.47
18784;BME280;9520;50.954;6.968;2022-12-16T00:07:36;100421.13;;;3.26;44.23
18784;BME280;9520;50.954;6.968;2022-12-16T00:07:58;100433.31;;;3.25;44.24
18784;BME280;9520;50.954;6.968;2022-12-16T00:08:21;100424.63;;;3.25;44.08
18784;BME280;9520;50.954;6.968;2022-12-16T00:08:43;100424.59;;;3.26;44.56
18784;BME280;9520;50.954;6.968;2022-12-16T00:09:04;100418.53;;;3.27;44.09
18784;BME280;9520;50.954;6.968;2022-12-16T00:09:26;100415.91;;;3.26;44.38
18784;BME280;9520;50.954;6.968;2022-12-16T00:09:48;100428.94;;;3.24;44.27
18784;BME280;9520;50.954;6.968;2022-12-16T00:10:12;100429.81;;;3.26;44.44
18784;BME280;9520;50.954;6.968;2022-12-16T00:10:33;100412.38;;;3.18;43.86
18784;BME280;9520;50.954;6.968;2022-12-16T00:11:13;100423.72;;;3.23;44.11
18784;BME280;9520;50.954;6.968;2022-12-16T00:11:36;100425.50;;;3.25;44.16
18784;BME280;9520;50.954;6.968;2022-12-16T00:11:57;100426.34;;;3.26;44.37
18784;BME280;9520;50.954;6.968;2022-12-16T00:12:19;100423.72;;;3.23;43.96
18784;BME280;9520;50.954;6.968;2022-12-16T00:12:41;100425.44;;;3.22;44.10
18784;BME280;9520;50.954;6.968;2022-12-16T00:13:02;100427.13;;;3.17;44.20
18784;BME280;9520;50.954;6.968;2022-12-16T00:13:32;100427.16;;;3.20;44.57
18784;BME280;9520;50.954;6.968;2022-12-16T00:13:56;100426.25;;;3.17;44.23
18784;BME280;9520;50.954;6.968;2022-12-16T00:14:17;100422.75;;;3.16;44.35
18784;BME280;9520;50.954;6.968;2022-12-16T00:14:40;100430.56;;;3.13;44.24
18784;BME280;9520;50.954;6.968;2022-12-16T00:15:02;100425.38;;;3.15;44.55
18784;BME280;9520;50.954;6.968;2022-12-16T00:15:23;100424.53;;;3.19;44.46
18784;BME280;9520;50.954;6.968;2022-12-16T00:15:45;100423.66;;;3.15;44.09
18784;BME280;9520;50.954;6.968;2022-12-16T00:16:09;100419.31;;;3.16;43.99
18784;BME280;9520;50.954;6.968;2022-12-16T00:16:32;100421.88;;;3.14;44.33
18784;BME280;9520;50.954;6.968;2022-12-16T00:16:54;100424.47;;;3.13;43.98
18784;BME280;9520;50.954;6.968;2022-12-16T00:17:16;100418.38;;;3.11;43.87
18784;BME280;9520;50.954;6.968;2022-12-16T00:17:38;100404.41;;;3.04;44.59
18784;BME280;9520;50.954;6.968;2022-12-16T00:18:00;100426.22;;;3.14;44.05
18784;BME280;9520;50.954;6.968;2022-12-16T00:18:22;100424.44;;;3.11;43.87
18784;BME280;9520;50.954;6.968;2022-12-16T00:18:45;100415.75;;;3.09;44.10
18784;BME280;9520;50.954;6.968;2022-12-16T00:19:07;100418.38;;;3.12;44.23
18784;BME280;9520;50.954;6.968;2022-12-16T00:19:28;100418.41;;;3.14;44.79
18784;BME280;9520;50.954;6.968;2022-12-16T00:19:53;100412.28;;;3.09;44.24
18784;BME280;9520;50.954;6.968;2022-12-16T00:20:16;100399.94;;;2.91;44.68
18784;BME280;9520;50.954;6.968;2022-12-16T00:20:43;100413.06;;;3.01;44.36
18784;BME280;9520;50.954;6.968;2022-12-16T00:21:05;100422.63;;;3.02;44.28
18784;BME280;9520;50.954;6.968;2022-12-16T00:21:28;100406.94;;;2.98;44.19
18784;BME280;9520;50.954;6.968;2022-12-16T00:21:50;100422.69;;;3.09;44.44
18784;BME280;9520;50.954;6.968;2022-12-16T00:22:12;100422.72;;;3.12;44.75
18784;BME280;9520;50.954;6.968;2022-12-16T00:22:33;100408.78;;;3.05;44.32
18784;BME280;9520;50.954;6.968;2022-12-16T00:22:56;100421.91;;;3.16;44.02
18784;BME280;9520;50.954;6.968;2022-12-16T00:23:18;100419.28;;;3.14;44.72
18784;BME280;9520;50.954;6.968;2022-12-16T00:23:40;100419.28;;;3.14;44.37
18784;BME280;9520;50.954;6.968;2022-12-16T00:24:02;100421.88;;;3.14;44.47
18784;BME280;9520;50.954;6.968;2022-12-16T00:24:25;100417.53;;;3.13;44.34
18784;BME280;9520;50.954;6.968;2022-12-16T00:24:46;100415.81;;;3.14;44.42
18784;BME280;9520;50.954;6.968;2022-12-16T00:25:08;100414.94;;;3.15;43.89
18784;BME280;9520;50.954;6.968;2022-12-16T00:25:30;100421.00;;;3.14;44.10
18784;BME280;9520;50.954;6.968;2022-12-16T00:25:51;100418.34;;;3.08;43.81
18784;BME280;9520;50.954;6.968;2022-12-16T00:26:15;100418.34;;;3.08;44.06
18784;BME280;9520;50.954;6.968;2022-12-16T00:26:37;100419.19;;;3.05;43.79
18784;BME280;9520;50.954;6.968;2022-12-16T00:26:59;100414.84;;;3.04;43.89
18784;BME280;9520;50.954;6.968;2022-12-16T00:27:21;100411.34;;;3.03;44.22
18784;BME280;9520;50.954;6.968;2022-12-16T00:27:43;100409.63;;;3.04;44.31
18784;BME280;9520;50.954;6.968;2022-12-16T00:28:05;100416.63;;;3.10;44.38
18784;BME280;9520;50.954;6.968;2022-12-16T00:28:27;100419.22;;;3.08;43.93
18784;BME280;9520;50.954;6.968;2022-12-16T00:28:49;100417.50;;;3.10;44.56
18784;BME280;9520;50.954;6.968;2022-12-16T00:29:12;100413.97;;;3.05;44.10
18784;BME280;9520;50.954;6.968;2022-12-16T00:29:33;100419.22;;;3.08;44.30
18784;BME280;9520;50.954;6.968;2022-12-16T00:29:55;100419.25;;;3.10;44.26
18784;BME280;9520;50.954;6.968;2022-12-16T00:30:17;100421.00;;;3.11;44.20
18784;BME280;9520;50.954;6.968;2022-12-16T00:30:41;100421.81;;;3.08;44.24
18784;BME280;9520;50.954;6.968;2022-12-16T00:31:03;100413.97;;;3.07;44.34
18784;BME280;9520;50.954;6.968;2022-12-16T00:31:25;100418.34;;;3.08;44.57
18784;BME280;9520;50.954;6.968;2022-12-16T00:31:48;100395.66;;;2.97;44.02
18784;BME280;9520;50.954;6.968;2022-12-16T00:32:11;100422.66;;;3.07;44.37
18784;BME280;9520;50.954;6.968;2022-12-16T00:32:32;100421.81;;;3.05;44.28
18784;BME280;9520;50.954;6.968;2022-12-16T00:32:54;100424.41;;;3.05;44.52
18784;BME280;9520;50.954;6.968;2022-12-16T00:33:18;100415.69;;;3.03;44.35
18784;BME280;9520;50.954;6.968;2022-12-16T00:33:40;100414.84;;;3.04;44.03
18784;BME280;9520;50.954;6.968;2022-12-16T00:34:02;100414.88;;;3.06;44.47
18784;BME280;9520;50.954;6.968;2022-12-16T00:34:24;100413.94;;;3.02;44.43
18784;BME280;9520;50.954;6.968;2022-12-16T00:34:46;100417.44;;;3.04;44.65
18784;BME280;9520;50.954;6.968;2022-12-16T00:35:09;100420.91;;;3.06;44.59
18784;BME280;9520;50.954;6.968;2022-12-16T00:35:31;100423.53;;;3.06;44.41
18784;BME280;9520;50.954;6.968;2022-12-16T00:35:53;100422.69;;;3.06;44.56
18784;BME280;9520;50.954;6.968;2022-12-16T00:36:16;100424.38;;;3.03;44.24
18784;BME280;9520;50.954;6.968;2022-12-16T00:36:38;100411.38;;;3.07;44.09
18784;BME280;9520;50.954;6.968;2022-12-16T00:36:59;100373.78;;;2.83;44.41
18784;BME280;9520;50.954;6.968;2022-12-16T00:37:21;100414.00;;;3.08;44.00
18784;BME280;9520;50.954;6.968;2022-12-16T00:37:45;100417.47;;;3.06;44.36
18784;BME280;9520;50.954;6.968;2022-12-16T00:38:07;100423.53;;;3.04;44.70
18784;BME280;9520;50.954;6.968;2022-12-16T00:38:29;100413.97;;;3.03;44.21
18784;BME280;9520;50.954;6.968;2022-12-16T00:38:51;100422.69;;;3.06;44.17
18784;BME280;9520;50.954;6.968;2022-12-16T00:39:14;100419.19;;;3.07;44.32
18784;BME280;9520;50.954;6.968;2022-12-16T00:39:36;100420.06;;;3.07;44.21
18784;BME280;9520;50.954;6.968;2022-12-16T00:39:58;100414.91;;;3.12;44.16
18784;BME280;9520;50.954;6.968;2022-12-16T00:40:19;100415.75;;;3.09;44.30
18784;BME280;9520;50.954;6.968;2022-12-16T00:40:42;100389.59;;;3.01;44.27
18784;BME280;9520;50.954;6.968;2022-12-16T00:41:05;100417.47;;;3.09;43.89
18784;BME280;9520;50.954;6.968;2022-12-16T00:41:27;100402.66;;;3.03;44.66
18784;BME280;9520;50.954;6.968;2022-12-16T00:41:49;100415.78;;;3.11;44.00
18784;BME280;9520;50.954;6.968;2022-12-16T00:42:12;100419.25;;;3.10;43.74
18784;BME280;9520;50.954;6.968;2022-12-16T00:42:34;100411.41;;;3.11;43.84
18784;BME280;9520;50.954;6.968;2022-12-16T00:42:56;100414.94;;;3.13;43.77
18784;BME280;9520;50.954;6.968;2022-12-16T00:43:18;100409.69;;;3.10;43.98
18784;BME280;9520;50.954;6.968;2022-12-16T00:43:40;100418.34;;;3.08;44.17
18784;BME280;9520;50.954;6.968;2022-12-16T00:44:03;100414.84;;;3.07;44.24
18784;BME280;9520;50.954;6.968;2022-12-16T00:44:24;100411.44;;;3.10;43.87
18784;BME280;9520;50.954;6.968;2022-12-16T00:44:46;100411.41;;;3.08;43.96
18784;BME280;9520;50.954;6.968;2022-12-16T00:45:09;100406.22;;;3.10;44.15
18784;BME280;9520;50.954;6.968;2022-12-16T00:45:30;100410.53;;;3.09;44.46
18784;BME280;9520;50.954;6.968;2022-12-16T00:45:52;100410.53;;;3.09;43.96
18784;BME280;9520;50.954;6.968;2022-12-16T00:46:14;100414.03;;;3.11;44.32
18784;BME280;9520;50.954;6.968;2022-12-16T00:46:40;100384.38;;;2.95;43.42
18784;BME280;9520;50.954;6.968;2022-12-16T00:47:02;100411.44;;;3.13;43.93
18784;BME280;9520;50.954;6.968;2022-12-16T00:47:23;100408.75;;;3.07;43.52
18784;BME280;9520;50.954;6.968;2022-12-16T00:47:45;100402.66;;;3.03;43.87
18784;BME280;9520;50.954;6.968;2022-12-16T00:48:08;100414.94;;;3.13;43.26
18784;BME280;9520;50.954;6.968;2022-12-16T00:48:29;100416.69;;;3.14;43.26
18784;BME280;9520;50.954;6.968;2022-12-16T00:48:51;100414.91;;;3.10;44.35
18784;BME280;9520;50.954;6.968;2022-12-16T00:49:13;100416.63;;;3.10;43.83
18784;BME280;9520;50.954;6.968;2022-12-16T00:49:35;100414.03;;;3.10;43.47
18784;BME280;9520;50.954;6.968;2022-12-16T00:49:57;100414.94;;;3.13;44.28
18784;BME280;9520;50.954;6.968;2022-12-16T00:50:20;100413.09;;;3.06;43.68
18784;BME280;9520;50.954;6.968;2022-12-16T00:50:45;100410.47;;;3.03;43.76
18784;BME280;9520;50.954;6.968;2022-12-16T00:51:09;100404.38;;;2.99;43.74
18784;BME280;9520;50.954;6.968;2022-12-16T00:51:32;100411.38;;;3.07;44.00
18784;BME280;9520;50.954;6.968;2022-12-16T00:51:53;100416.53;;;3.02;43.65
18784;BME280;9520;50.954;6.968;2022-12-16T00:52:15;100395.59;;;2.93;43.89
18784;BME280;9520;50.954;6.968;2022-12-16T00:52:37;100409.63;;;3.04;43.85
18784;BME280;9520;50.954;6.968;2022-12-16T00:53:00;100416.53;;;3.00;43.84
18784;BME280;9520;50.954;6.968;2022-12-16T00:53:23;100415.66;;;3.01;43.76
18784;BME280;9520;50.954;6.968;2022-12-16T00:53:44;100412.91;;;2.88;43.76
18784;BME280;9520;50.954;6.968;2022-12-16T00:54:06;100410.28;;;2.85;43.87
18784;BME280;9520;50.954;6.968;2022-12-16T00:54:29;100398.09;;;2.82;43.98
18784;BME280;9520;50.954;6.968;2022-12-16T00:54:50;100415.59;;;2.94;43.80
18784;BME280;9520;50.954;6.968;2022-12-16T00:55:12;100403.44;;;2.94;43.30
18784;BME280;9520;50.954;6.968;2022-12-16T00:55:34;100416.44;;;2.93;43.65
18784;BME280;9520;50.954;6.968;2022-12-16T00:56:01;100414.75;;;2.95;43.73
18784;BME280;9520;50.954;6.968;2022-12-16T00:56:23;100411.28;;;2.96;43.89
18784;BME280;9520;50.954;6.968;2022-12-16T00:56:45;100394.63;;;2.83;43.73
18784;BME280;9520;50.954;6.968;2022-12-16T00:57:07;100413.00;;;2.95;43.52
18784;BME280;9520;50.954;6.968;2022-12-16T00:57:29;100402.53;;;2.91;43.79
18784;BME280;9520;50.954;6.968;2022-12-16T00:57:51;100418.22;;;2.97;43.33
18784;BME280;9520;50.954;6.968;2022-12-16T00:58:15;100409.50;;;2.93;43.55
18784;BME280;9520;50.954;6.968;2022-12-16T00:58:37;100404.34;;;2.98;43.40
18784;BME280;9520;50.954;6.968;2022-12-16T00:59:00;100396.41;;;2.87;42.91
18784;BME280;9520;50.954;6.968;2022-12-16T00:59:22;100404.13;;;2.81;42.98
18784;BME280;9520;50.954;6.968;2022-12-16T00:59:43;100390.16;;;2.73;43.82
18784;BME280;9520;50.954;6.968;2022-12-16T01:00:07;100405.00;;;2.82;43.51
18784;BME280;9520;50.954;6.968;2022-12-16T01:00:33;100408.53;;;2.87;43.27
18784;BME280;9520;50.954;6.968;2022-12-16T01:00:54;100412.00;;;2.84;42.91
18784;BME280;9520;50.954;6.968;2022-12-16T01:01:16;100414.59;;;2.83;43.75
18784;BME280;9520;50.954;6.968;2022-12-16T01:01:38;100408.50;;;2.82;43.29
18784;BME280;9520;50.954;6.968;2022-12-16T01:02:01;100409.38;;;2.83;43.82
18784;BME280;9520;50.954;6.968;2022-12-16T01:02:23;100408.50;;;2.81;43.48
18784;BME280;9520;50.954;6.968;2022-12-16T01:02:47;100412.00;;;2.84;43.27
18784;BME280;9520;50.954;6.968;2022-12-16T01:03:09;100413.75;;;2.85;43.47
18784;BME280;9520;50.954;6.968;2022-12-16T01:03:38;100416.34;;;2.84;43.13
18784;BME280;9520;50.954;6.968;2022-12-16T01:04:00;100413.72;;;2.81;42.91
18784;BME280;9520;50.954;6.968;2022-12-16T01:04:22;100412.81;;;2.79;43.23
18784;BME280;9520;50.954;6.968;2022-12-16T01:04:47;100412.72;;;2.73;43.29
18784;BME280;9520;50.954;6.968;2022-12-16T01:05:09;100415.97;;;2.53;43.39
18784;BME280;9520;50.954;6.968;2022-12-16T01:05:33;100422.94;;;2.57;43.71
18784;BME280;9520;50.954;6.968;2022-12-16T01:05:54;100408.94;;;2.48;43.46
18784;BME280;9520;50.954;6.968;2022-12-16T01:06:17;100410.66;;;2.47;43.46
18784;BME280;9520;50.954;6.968;2022-12-16T01:06:39;100424.63;;;2.51;43.85
18784;BME280;9520;50.954;6.968;2022-12-16T01:07:00;100415.06;;;2.50;43.64
18784;BME280;9520;50.954;6.968;2022-12-16T01:07:22;100401.03;;;2.42;44.00
18784;BME280;9520;50.954;6.968;2022-12-16T01:07:44;100415.97;;;2.53;44.24
18784;BME280;9520;50.954;6.968;2022-12-16T01:08:06;100412.41;;;2.48;43.93
18784;BME280;9520;50.954;6.968;2022-12-16T01:08:28;100416.84;;;2.54;44.04
18784;BME280;9520;50.954;6.968;2022-12-16T01:08:50;100415.06;;;2.53;43.73
18784;BME280;9520;50.954;6.968;2022-12-16T01:09:12;100415.94;;;2.52;43.90
18784;BME280;9520;50.954;6.968;2022-12-16T01:09:34;100420.34;;;2.56;44.16
18784;BME280;9520;50.954;6.968;2022-12-16T01:09:56;100419.50;;;2.58;43.96
18784;BME280;9520;50.954;6.968;2022-12-16T01:10:18;100411.59;;;2.51;43.50
18784;BME280;9520;50.954;6.968;2022-12-16T01:10:40;100409.81;;;2.48;43.79
18784;BME280;9520;50.954;6.968;2022-12-16T01:11:04;100420.09;;;2.39;43.98
18784;BME280;9520;50.954;6.968;2022-12-16T01:11:26;100418.41;;;2.43;44.19
18784;BME280;9520;50.954;6.968;2022-12-16T01:11:48;100419.28;;;2.43;44.19
18784;BME280;9520;50.954;6.968;2022-12-16T01:12:10;100420.13;;;2.42;44.57
18784;BME280;9520;50.954;6.968;2022-12-16T01:12:33;100413.13;;;2.35;44.60
18784;BME280;9520;50.954;6.968;2022-12-16T01:12:55;100414.88;;;2.36;44.90
18784;BME280;9520;50.954;6.968;2022-12-16T01:13:17;100421.88;;;2.40;44.65
18784;BME280;9520;50.954;6.968;2022-12-16T01:13:39;100409.66;;;2.36;44.95
18784;BME280;9520;50.954;6.968;2022-12-16T01:14:02;100420.06;;;2.38;45.06
18784;BME280;9520;50.954;6.968;2022-12-16T01:14:23;100418.34;;;2.38;45.03
18784;BME280;9520;50.954;6.968;2022-12-16T01:14:45;100417.53;;;2.41;45.29
18784;BME280;9520;50.954;6.968;2022-12-16T01:15:08;100422.72;;;2.39;45.48
18784;BME280;9520;50.954;6.968;2022-12-16T01:15:32;100419.19;;;2.37;45.47
18784;BME280;9520;50.954;6.968;2022-12-16T01:15:58;100424.41;;;2.36;45.48
18784;BME280;9520;50.954;6.968;2022-12-16T01:16:20;100412.13;;;2.27;45.49
18784;BME280;9520;50.954;6.968;2022-12-16T01:16:42;100418.16;;;2.25;45.79
18784;BME280;9520;50.954;6.968;2022-12-16T01:17:05;100418.16;;;2.25;45.57
18784;BME280;9520;50.954;6.968;2022-12-16T01:17:27;100423.38;;;2.25;45.84
18784;BME280;9520;50.954;6.968;2022-12-16T01:17:48;100426.88;;;2.27;45.92
18784;BME280;9520;50.954;6.968;2022-12-16T01:18:10;100423.34;;;2.22;45.64
18784;BME280;9520;50.954;6.968;2022-12-16T01:19:17;100419.81;;;2.18;46.18
18784;BME280;9520;50.954;6.968;2022-12-16T01:19:39;100425.91;;;2.20;46.69
18784;BME280;9520;50.954;6.968;2022-12-16T01:20:02;100421.53;;;2.16;46.30
18784;BME280;9520;50.954;6.968;2022-12-16T01:20:24;100423.28;;;2.17;46.51
18784;BME280;9520;50.954;6.968;2022-12-16T01:20:47;100420.66;;;2.15;46.49
18784;BME280;9520;50.954;6.968;2022-12-16T01:21:11;100414.50;;;2.10;46.72
18784;BME280;9520;50.954;6.968;2022-12-16T01:21:35;100422.28;;;2.09;46.31
18784;BME280;9520;50.954;6.968;2022-12-16T01:21:57;100414.41;;;2.04;46.53
18784;BME280;9520;50.954;6.968;2022-12-16T01:22:19;100424.84;;;2.07;46.72
18784;BME280;9520;50.954;6.968;2022-12-16T01:22:41;100424.00;;;2.08;46.48
18784;BME280;9520;50.954;6.968;2022-12-16T01:23:05;100424.84;;;2.06;46.47
18784;BME280;9520;50.954;6.968;2022-12-16T01:23:27;100421.34;;;2.04;46.95
18784;BME280;9520;50.954;6.968;2022-12-16T01:23:48;100420.47;;;2.05;46.89
18784;BME280;9520;50.954;6.968;2022-12-16T01:24:10;100428.31;;;2.08;46.35
18784;BME280;9520;50.954;6.968;2022-12-16T01:24:33;100426.59;;;2.08;46.34
18784;BME280;9520;50.954;6.968;2022-12-16T01:24:55;100424.03;;;2.10;46.62
18784;BME280;9520;50.954;6.968;2022-12-16T01:25:17;100421.44;;;2.10;46.42
18784;BME280;9520;50.954;6.968;2022-12-16T01:25:38;100426.59;;;2.08;46.65
18784;BME280;9520;50.954;6.968;2022-12-16T01:26:01;100424.84;;;2.07;46.66
18784;BME280;9520;50.954;6.968;2022-12-16T01:26:23;100420.53;;;2.08;46.90
18784;BME280;9520;50.954;6.968;2022-12-16T01:26:45;100387.25;;;1.86;46.65
18784;BME280;9520;50.954;6.968;2022-12-16T01:27:06;100429.22;;;2.10;46.64
18784;BME280;9520;50.954;6.968;2022-12-16T01:27:29;100428.34;;;2.09;46.71
18784;BME280;9520;50.954;6.968;2022-12-16T01:27:51;100422.34;;;2.13;46.77
18784;BME280;9520;50.954;6.968;2022-12-16T01:28:13;100425.81;;;2.14;46.85
18784;BME280;9520;50.954;6.968;2022-12-16T01:28:34;100425.69;;;2.05;46.93
18784;BME280;9520;50.954;6.968;2022-12-16T01:28:57;100425.75;;;2.09;46.91
18784;BME280;9520;50.954;6.968;2022-12-16T01:29:19;100431.88;;;2.11;46.66
18784;BME280;9520;50.954;6.968;2022-12-16T01:29:41;100429.34;;;2.16;46.81
18784;BME280;9520;50.954;6.968;2022-12-16T01:30:03;100426.66;;;2.13;46.50
18784;BME280;9520;50.954;6.968;2022-12-16T01:30:27;100436.22;;;2.14;46.73
18784;BME280;9520;50.954;6.968;2022-12-16T01:30:48;100425.84;;;2.15;46.92
18784;BME280;9520;50.954;6.968;2022-12-16T01:31:16;100429.25;;;2.13;46.35
18784;BME280;9520;50.954;6.968;2022-12-16T01:31:38;100435.34;;;2.13;47.00
18784;BME280;9520;50.954;6.968;2022-12-16T01:32:02;100429.34;;;2.16;46.26
18784;BME280;9520;50.954;6.968;2022-12-16T01:32:24;100432.78;;;2.15;46.76
18784;BME280;9520;50.954;6.968;2022-12-16T01:32:46;100434.25;;;1.99;46.32
18784;BME280;9520;50.954;6.968;2022-12-16T01:33:08;100432.53;;;2.00;46.52
18784;BME280;9520;50.954;6.968;2022-12-16T01:33:31;100428.28;;;2.05;46.64
18784;BME280;9520;50.954;6.968;2022-12-16T01:33:54;100434.44;;;2.10;46.85
18784;BME280;9520;50.954;6.968;2022-12-16T01:34:15;100424.03;;;2.10;46.47
18784;BME280;9520;50.954;6.968;2022-12-16T01:34:39;100430.09;;;2.10;46.56
18784;BME280;9520;50.954;6.968;2022-12-16T01:35:00;100434.22;;;1.98;46.76
18784;BME280;9520;50.954;6.968;2022-12-16T01:35:22;100430.81;;;2.00;46.64
18784;BME280;9520;50.954;6.968;2022-12-16T01:36:06;100417.75;;;1.96;46.71
18784;BME280;9520;50.954;6.968;2022-12-16T01:36:29;100428.31;;;2.06;46.91
18784;BME280;9520;50.954;6.968;2022-12-16T01:36:51;100425.66;;;2.02;46.26
18784;BME280;9520;50.954;6.968;2022-12-16T01:37:12;100429.91;;;1.98;46.54
18784;BME280;9520;50.954;6.968;2022-12-16T01:37:35;100435.28;;;2.09;46.81
18784;BME280;9520;50.954;6.968;2022-12-16T01:37:57;100434.41;;;2.08;46.55
18784;BME280;9520;50.954;6.968;2022-12-16T01:38:19;100437.94;;;2.13;46.65
18784;BME280;9520;50.954;6.968;2022-12-16T01:38:42;100431.88;;;2.13;46.78
18784;BME280;9520;50.954;6.968;2022-12-16T01:39:04;100430.00;;;2.04;46.45
18784;BME280;9520;50.954;6.968;2022-12-16T01:39:26;100439.66;;;2.13;46.76
18784;BME280;9520;50.954;6.968;2022-12-16T01:39:50;100439.69;;;2.14;46.71
18784;BME280;9520;50.954;6.968;2022-12-16T01:40:16;100440.56;;;2.15;46.47
18784;BME280;9520;50.954;6.968;2022-12-16T01:40:38;100440.59;;;2.18;46.41
18784;BME280;9520;50.954;6.968;2022-12-16T01:41:01;100438.06;;;2.21;46.09
18784;BME280;9520;50.954;6.968;2022-12-16T01:41:23;100419.78;;;2.15;46.38
18784;BME280;9520;50.954;6.968;2022-12-16T01:41:45;100437.22;;;2.24;46.43
18784;BME280;9520;50.954;6.968;2022-12-16T01:42:10;100444.22;;;2.28;46.30
18784;BME280;9520;50.954;6.968;2022-12-16T01:42:32;100439.91;;;2.28;46.48
18784;BME280;9520;50.954;6.968;2022-12-16T01:42:54;100441.69;;;2.31;46.03
18784;BME280;9520;50.954;6.968;2022-12-16T01:43:17;100448.63;;;2.33;46.34
18784;BME280;9520;50.954;6.968;2022-12-16T01:43:41;100445.19;;;2.34;45.76
18784;BME280;9520;50.954;6.968;2022-12-16T01:44:15;100437.34;;;2.33;46.16
18784;BME280;9520;50.954;6.968;2022-12-16T01:44:37;100437.31;;;2.30;46.23
18784;BME280;9520;50.954;6.968;2022-12-16T01:45:59;100439.91;;;2.28;46.50
18784;BME280;9520;50.954;6.968;2022-12-16T01:46:23;100446.09;;;2.36;46.32
18784;BME280;9520;50.954;6.968;2022-12-16T01:46:50;100445.19;;;2.34;46.41
18784;BME280;9520;50.954;6.968;2022-12-16T01:47:15;100453.00;;;2.34;46.18
18784;BME280;9520;50.954;6.968;2022-12-16T01:47:37;100441.69;;;2.32;46.38
18784;BME280;9520;50.954;6.968;2022-12-16T01:48:02;100444.28;;;2.32;46.11
18784;BME280;9520;50.954;6.968;2022-12-16T01:48:41;100445.09;;;2.27;45.92
18784;BME280;9520;50.954;6.968;2022-12-16T01:49:10;100448.59;;;2.30;46.29
18784;BME280;9520;50.954;6.968;2022-12-16T01:49:37;100447.75;;;2.33;45.91
18784;BME280;9520;50.954;6.968;2022-12-16T01:50:04;100437.25;;;2.25;46.31
18784;BME280;9520;50.954;6.968;2022-12-16T01:50:29;100450.41;;;2.34;46.39
18784;BME280;9520;50.954;6.968;2022-12-16T01:50:55;100454.78;;;2.37;46.13
18784;BME280;9520;50.954;6.968;2022-12-16T01:51:25;100447.84;;;2.39;45.91
18784;BME280;9520;50.954;6.968;2022-12-16T01:51:51;100445.28;;;2.40;45.95
18784;BME280;9520;50.954;6.968;2022-12-16T01:52:19;100447.03;;;2.43;45.77
18784;BME280;9520;50.954;6.968;2022-12-16T01:52:45;100447.03;;;2.41;45.72
18784;BME280;9520;50.954;6.968;2022-12-16T01:53:09;100447.97;;;2.46;45.45
18784;BME280;9520;50.954;6.968;2022-12-16T01:53:32;100439.09;;;2.34;45.71
18784;BME280;9520;50.954;6.968;2022-12-16T01:54:17;100445.28;;;2.42;45.59
18784;BME280;9520;50.954;6.968;2022-12-16T01:55:01;100458.28;;;2.40;45.76
18784;BME280;9520;50.954;6.968;2022-12-16T01:55:45;100456.50;;;2.38;45.73
18784;BME280;9520;50.954;6.968;2022-12-16T01:56:10;100415.44;;;2.15;45.72
18784;BME280;9520;50.954;6.968;2022-12-16T01:56:36;100453.94;;;2.39;45.73
18784;BME280;9520;50.954;6.968;2022-12-16T01:57:02;100452.25;;;2.43;45.59
18784;BME280;9520;50.954;6.968;2022-12-16T01:57:29;100447.91;;;2.43;45.88
18784;BME280;9520;50.954;6.968;2022-12-16T01:57:56;100442.59;;;2.34;45.55
18784;BME280;9520;50.954;6.968;2022-12-16T01:58:23;100460.06;;;2.43;45.48
18784;BME280;9520;50.954;6.968;2022-12-16T01:58:46;100453.09;;;2.42;45.34
18784;BME280;9520;50.954;6.968;2022-12-16T01:59:09;100453.97;;;2.41;45.83
18784;BME280;9520;50.954;6.968;2022-12-16T01:59:35;100443.41;;;2.30;45.59
18784;BME280;9520;50.954;6.968;2022-12-16T01:59:58;100453.91;;;2.38;45.36
18784;BME280;9520;50.954;6.968;2022-12-16T02:00:21;100446.84;;;2.29;45.50
18784;BME280;9520;50.954;6.968;2022-12-16T02:00:43;100462.50;;;2.31;45.99
18784;BME280;9520;50.954;6.968;2022-12-16T02:01:06;100453.69;;;2.21;45.88
18784;BME280;9520;50.954;6.968;2022-12-16T02:01:28;100451.78;;;2.12;46.04
18784;BME280;9520;50.954;6.968;2022-12-16T02:01:50;100457.84;;;2.10;45.90
18784;BME280;9520;50.954;6.968;2022-12-16T02:02:13;100452.56;;;2.05;46.02
18784;BME280;9520;50.954;6.968;2022-12-16T02:02:35;100461.31;;;2.10;46.10
18784;BME280;9520;50.954;6.968;2022-12-16T02:02:59;100454.41;;;2.12;46.06
18784;BME280;9520;50.954;6.968;2022-12-16T02:03:21;100455.41;;;2.22;45.83
18784;BME280;9520;50.954;6.968;2022-12-16T02:03:43;100455.31;;;2.14;45.79
18784;BME280;9520;50.954;6.968;2022-12-16T02:04:05;100455.34;;;2.16;45.74
18784;BME280;9520;50.954;6.968;2022-12-16T02:04:27;100459.41;;;1.99;46.21
18784;BME280;9520;50.954;6.968;2022-12-16T02:04:49;100461.25;;;2.07;45.93
18784;BME280;9520;50.954;6.968;2022-12-16T02:05:29;100453.47;;;2.09;45.80
18784;BME280;9520;50.954;6.968;2022-12-16T02:05:52;100453.47;;;2.09;45.65